Time;durP1;ratioP1;P1;durP2;ratioP2;P2;SDS_P1;SDS_P2;PMS_P1;PMS_P2;Temp;Humidity;BMP_temperature;BMP_pressure;BME280_temperature;BME280_humidity;BME280_pressure;Samples;Min_cycle;Max_cycle;Signal;HPM_P1;HPM_P2
2022/10/30 00:01:38;;;;;;;12.90;5.40;;;;;;;10.65;88.84;97740.50;6231927;22;20012;-68
2022/10/30 00:04:02;;;;;;;5.13;4.07;;;;;;;10.67;88.80;97738.53;6231733;22;20022;-70
2022/10/30 00:06:27;;;;;;;7.13;4.85;;;;;;;10.71;88.68;97735.41;6232220;22;20043;-70
2022/10/30 00:08:51;;;;;;;8.63;4.38;;;;;;;10.77;88.87;97740.09;6233259;22;20027;-75
2022/10/30 00:11:16;;;;;;;7.40;4.65;;;;;;;10.81;88.20;97735.28;6232510;22;20023;-70
2022/10/30 00:13:43;;;;;;;6.10;4.60;;;;;;;10.83;87.99;97736.81;6232294;22;20402;-67
2022/10/30 00:16:08;;;;;;;7.00;4.57;;;;;;;10.83;88.25;97731.47;6232386;22;20011;-70
2022/10/30 00:18:38;;;;;;;6.65;4.60;;;;;;;10.89;88.34;97728.16;6232325;22;20073;-67
2022/10/30 00:21:08;;;;;;;7.95;4.47;;;;;;;10.86;88.27;97730.31;6233496;22;20023;-66
2022/10/30 00:23:33;;;;;;;7.57;5.15;;;;;;;10.83;87.56;97727.97;6228805;22;20023;-71
2022/10/30 00:26:02;;;;;;;7.25;4.72;;;;;;;10.87;88.25;97730.16;6230770;22;20018;-71
2022/10/30 00:28:26;;;;;;;9.10;5.68;;;;;;;10.85;88.11;97723.31;6233061;22;20022;-71
2022/10/30 00:30:51;;;;;;;7.47;5.10;;;;;;;10.88;87.87;97720.31;6230475;22;20016;-70
2022/10/30 00:33:16;;;;;;;11.13;5.18;;;;;;;10.88;87.42;97720.31;6231993;22;20366;-73
2022/10/30 00:35:47;;;;;;;6.00;4.65;;;;;;;10.91;87.69;97715.53;6234752;22;20026;-77
2022/10/30 00:38:12;;;;;;;7.40;4.35;;;;;;;10.91;87.78;97712.84;6235823;22;20015;-74
2022/10/30 00:40:36;;;;;;;9.27;5.47;;;;;;;10.91;87.77;97704.03;6239321;22;20042;-76
2022/10/30 00:43:01;;;;;;;7.18;5.20;;;;;;;10.91;87.16;97694.19;6238383;22;20096;-77
2022/10/30 00:45:26;;;;;;;6.95;4.47;;;;;;;10.93;87.54;97704.72;6236755;22;20451;-72
2022/10/30 00:48:02;;;;;;;7.72;5.18;;;;;;;10.97;87.76;97700.72;6234443;22;20015;-72
2022/10/30 00:50:31;;;;;;;7.07;4.63;;;;;;;10.93;87.13;97699.38;6232635;22;20023;-73
2022/10/30 00:53:11;;;;;;;9.05;5.47;;;;;;;10.97;87.58;97697.19;6234059;22;20016;-77
2022/10/30 00:55:42;;;;;;;8.90;5.38;;;;;;;10.91;87.32;97701.34;6232217;22;20046;-71
2022/10/30 00:58:13;;;;;;;7.20;4.97;;;;;;;10.94;87.03;97697.53;6239331;22;20026;-74
2022/10/30 01:00:42;;;;;;;7.47;5.20;;;;;;;10.93;87.23;97685.22;6230404;22;20105;-73
2022/10/30 01:03:06;;;;;;;8.23;5.88;;;;;;;10.89;87.62;97682.84;6231903;22;20023;-71
2022/10/30 01:05:32;;;;;;;7.85;5.38;;;;;;;10.93;87.58;97688.72;6232595;22;20020;-67
2022/10/30 01:07:57;;;;;;;7.88;5.47;;;;;;;10.90;87.76;97681.84;6227674;22;20016;-66
2022/10/30 01:10:21;;;;;;;9.57;5.55;;;;;;;10.89;87.49;97676.69;6231743;22;20102;-68
2022/10/30 01:12:48;;;;;;;13.52;5.68;;;;;;;10.89;86.66;97679.34;6230642;22;20022;-67
2022/10/30 01:15:13;;;;;;;8.23;5.40;;;;;;;10.94;87.10;97677.06;6230393;22;20060;-69
2022/10/30 01:18:17;;;;;;;8.82;5.50;;;;;;;11.03;87.24;97677.91;6229967;22;20119;-67
2022/10/30 01:21:16;;;;;;;9.13;5.55;;;;;;;11.01;86.95;97677.22;6229407;22;20065;-72
2022/10/30 01:24:06;;;;;;;6.70;5.35;;;;;;;10.96;86.96;97669.69;6204098;22;20079;-71
2022/10/30 01:26:40;;;;;;;7.43;5.32;;;;;;;10.97;86.73;97667.88;6232073;22;20488;-73
2022/10/30 01:29:30;;;;;;;10.30;5.57;;;;;;;11.02;86.59;97666.41;6230532;22;20020;-68
2022/10/30 01:32:33;;;;;;;12.10;6.20;;;;;;;11.02;86.98;97668.25;6229884;22;20069;-78
2022/10/30 01:35:04;;;;;;;7.72;5.38;;;;;;;10.95;86.71;97657.38;6229625;22;20313;-74
2022/10/30 01:37:55;;;;;;;8.35;5.82;;;;;;;11.00;86.56;97672.91;6229998;22;20474;-73
2022/10/30 01:40:21;;;;;;;7.25;5.60;;;;;;;10.96;86.14;97661.72;6229735;22;20023;-72
2022/10/30 01:42:54;;;;;;;12.90;6.88;;;;;;;11.02;86.77;97655.75;6232970;22;20015;-70
2022/10/30 01:45:25;;;;;;;7.82;5.55;;;;;;;11.05;86.49;97666.09;6236767;22;20022;-75
2022/10/30 01:47:57;;;;;;;6.28;5.07;;;;;;;11.09;86.45;97662.09;6237035;22;20462;-74
2022/10/30 01:51:06;;;;;;;7.25;5.75;;;;;;;11.15;86.77;97658.81;6234493;22;20023;-75
2022/10/30 01:54:12;;;;;;;9.85;5.82;;;;;;;11.18;86.54;97658.47;6036574;23;20017;-67
2022/10/30 01:57:12;;;;;;;8.40;5.45;;;;;;;11.24;86.17;97654.31;5993793;23;20018;-69
2022/10/30 02:00:01;;;;;;;8.35;5.60;;;;;;;11.25;86.50;97667.50;6018225;23;20021;-70
2022/10/30 02:02:25;;;;;;;8.00;5.90;;;;;;;11.19;85.85;97649.47;6019320;23;20023;-73
2022/10/30 02:04:52;;;;;;;9.00;5.68;;;;;;;11.12;85.41;97651.13;6025560;23;20320;-73
2022/10/30 02:07:17;;;;;;;9.60;5.35;;;;;;;11.11;85.49;97667.28;5996117;23;20406;-70
2022/10/30 02:09:49;;;;;;;6.15;4.55;;;;;;;11.08;85.10;97664.91;6019242;23;20058;-73
2022/10/30 02:12:14;;;;;;;7.82;5.53;;;;;;;10.97;84.29;97663.38;6020129;23;20425;-73
2022/10/30 02:14:59;;;;;;;9.57;5.03;;;;;;;10.99;84.01;97656.06;5998678;23;20023;-70
2022/10/30 02:17:26;;;;;;;11.50;4.95;;;;;;;10.94;83.58;97655.72;5995108;23;20025;-72
2022/10/30 02:19:51;;;;;;;7.85;4.90;;;;;;;10.94;83.88;97671.72;5996589;23;20042;-74
2022/10/30 02:22:16;;;;;;;9.35;4.20;;;;;;;10.97;83.77;97676.72;6020692;23;20193;-72
2022/10/30 02:24:42;;;;;;;6.90;4.13;;;;;;;10.98;82.91;97669.56;5995762;23;20529;-72
2022/10/30 02:27:06;;;;;;;5.72;4.05;;;;;;;10.96;82.29;97672.38;6030399;23;20044;-73
2022/10/30 02:29:31;;;;;;;8.73;5.90;;;;;;;10.94;82.23;97669.06;6140608;22;20081;-75
2022/10/30 02:31:56;;;;;;;8.88;4.55;;;;;;;10.94;81.30;97677.06;6228714;22;20019;-71
2022/10/30 02:34:21;;;;;;;6.57;4.47;;;;;;;10.94;81.17;97676.22;6229933;22;20086;-72
2022/10/30 02:36:46;;;;;;;7.68;4.53;;;;;;;11.00;81.84;97681.72;6229746;22;20701;-72
2022/10/30 02:39:15;;;;;;;7.75;4.43;;;;;;;11.02;81.02;97673.56;6228155;22;20069;-74
2022/10/30 02:41:40;;;;;;;6.65;4.30;;;;;;;10.99;81.12;97680.06;6230390;22;20347;-73
2022/10/30 02:44:05;;;;;;;6.30;4.22;;;;;;;10.96;80.40;97669.69;6229283;22;20015;-70
2022/10/30 02:46:32;;;;;;;5.30;3.67;;;;;;;11.01;80.56;97678.06;6179461;22;20021;-71
2022/10/30 02:48:56;;;;;;;5.70;4.18;;;;;;;11.02;80.36;97670.91;6228938;22;20059;-78
2022/10/30 02:51:21;;;;;;;8.85;4.15;;;;;;;10.95;79.58;97675.22;6229817;22;20022;-71
2022/10/30 02:53:49;;;;;;;6.00;3.60;;;;;;;10.88;79.40;97669.69;6230765;22;20024;-71
2022/10/30 02:56:14;;;;;;;6.18;4.10;;;;;;;10.76;79.52;97668.28;6223965;22;20052;-72
2022/10/30 02:58:40;;;;;;;3.90;3.17;;;;;;;10.70;79.01;97666.28;6224709;22;20022;-75
2022/10/30 03:01:12;;;;;;;5.30;3.60;;;;;;;10.72;79.22;97672.28;6228287;22;20016;-69
2022/10/30 03:03:37;;;;;;;5.47;3.67;;;;;;;10.73;79.40;97664.09;6208077;22;20103;-66
2022/10/30 03:06:05;;;;;;;7.50;4.03;;;;;;;10.73;79.34;97669.44;6230986;22;20022;-69
2022/10/30 03:08:30;;;;;;;5.18;3.10;;;;;;;10.69;78.79;97657.44;6232967;22;20016;-76
2022/10/30 03:11:24;;;;;;;7.65;4.18;;;;;;;10.77;78.86;97664.63;6206307;22;20015;-69
2022/10/30 03:13:53;;;;;;;5.60;3.58;;;;;;;10.77;78.68;97664.63;6086056;23;20017;-70
2022/10/30 03:16:23;;;;;;;5.88;4.25;;;;;;;10.75;78.85;97659.44;6093145;23;20135;-71
2022/10/30 03:18:49;;;;;;;6.05;3.85;;;;;;;10.70;79.25;97659.09;6096218;23;20021;-70
2022/10/30 03:21:17;;;;;;;5.50;3.60;;;;;;;10.62;78.85;97652.88;6093512;23;20407;-69
2022/10/30 03:23:42;;;;;;;6.72;3.72;;;;;;;10.63;78.72;97659.88;6120093;23;20024;-69
2022/10/30 03:26:07;;;;;;;6.13;3.92;;;;;;;10.48;78.64;97659.66;6117831;23;20041;-69
2022/10/30 03:28:40;;;;;;;6.13;4.27;;;;;;;10.44;78.84;97648.47;6063395;23;20069;-69
2022/10/30 03:31:10;;;;;;;8.63;3.42;;;;;;;10.36;78.72;97659.06;6084973;23;20469;-68
2022/10/30 03:33:38;;;;;;;4.90;3.47;;;;;;;10.29;78.69;97660.66;6109118;23;20100;-68
2022/10/30 03:36:05;;;;;;;7.10;3.80;;;;;;;10.31;78.89;97666.69;6109478;23;20028;-70
2022/10/30 03:38:30;;;;;;;5.43;3.60;;;;;;;10.28;78.59;97661.66;6083936;23;20484;-67
2022/10/30 03:40:54;;;;;;;7.97;4.13;;;;;;;10.19;78.41;97674.09;6061794;23;20393;-78
2022/10/30 03:43:20;;;;;;;8.40;3.78;;;;;;;10.12;78.14;97670.34;6111278;23;20453;-72
2022/10/30 03:45:50;;;;;;;7.15;3.58;;;;;;;10.18;78.69;97679.56;6115814;23;20108;-70
2022/10/30 03:48:17;;;;;;;4.65;3.50;;;;;;;10.21;78.32;97676.59;6085023;23;20021;-73
2022/10/30 03:50:42;;;;;;;9.20;3.50;;;;;;;10.24;78.41;97664.81;6161748;22;20144;-71
2022/10/30 03:53:07;;;;;;;8.45;4.03;;;;;;;10.26;77.61;97674.31;6178661;22;20047;-69
2022/10/30 03:55:32;;;;;;;6.80;3.00;;;;;;;10.24;77.84;97667.47;6230074;22;20073;-71
2022/10/30 03:57:56;;;;;;;4.65;3.03;;;;;;;10.33;77.20;97675.34;6229001;22;20447;-71
2022/10/30 04:00:22;;;;;;;5.20;3.20;;;;;;;10.32;77.17;97676.34;6229665;22;20022;-72
2022/10/30 04:02:57;;;;;;;5.60;3.13;;;;;;;10.36;76.13;97677.72;6229712;22;20077;-72
2022/10/30 04:05:24;;;;;;;5.13;3.58;;;;;;;10.35;76.05;97681.38;6229361;22;20479;-72
2022/10/30 04:07:56;;;;;;;4.43;3.25;;;;;;;10.31;75.79;97674.69;6229293;22;20012;-69
2022/10/30 04:10:22;;;;;;;8.88;3.00;;;;;;;10.28;75.41;97671.47;6229159;22;20331;-66
2022/10/30 04:12:47;;;;;;;4.55;3.30;;;;;;;10.34;76.07;97665.53;6231324;22;20011;-65
2022/10/30 04:15:11;;;;;;;6.68;3.15;;;;;;;10.32;75.87;97665.69;6229862;22;20447;-65
2022/10/30 04:17:36;;;;;;;4.68;2.83;;;;;;;10.32;75.98;97672.84;6230558;22;20023;-68
2022/10/30 04:20:03;;;;;;;5.97;2.90;;;;;;;10.28;75.27;97677.63;6229700;22;20019;-67
2022/10/30 04:22:29;;;;;;;5.95;3.20;;;;;;;10.26;75.29;97660.16;6231388;22;20011;-68
2022/10/30 04:24:54;;;;;;;5.88;2.95;;;;;;;10.15;75.01;97664.72;6231499;22;20026;-67
2022/10/30 04:27:19;;;;;;;3.33;2.45;;;;;;;10.08;74.56;97676.13;6230349;22;20015;-67
2022/10/30 04:29:44;;;;;;;7.85;3.33;;;;;;;10.05;74.95;97671.09;6230374;22;20016;-73
2022/10/30 04:32:09;;;;;;;4.57;2.67;;;;;;;10.08;74.96;97670.81;6205528;22;20489;-68
2022/10/30 04:34:34;;;;;;;4.72;2.70;;;;;;;10.00;74.74;97665.44;6229234;22;20022;-68
2022/10/30 04:37:01;;;;;;;4.65;2.10;;;;;;;10.06;74.69;97656.81;6229074;22;20069;-65
2022/10/30 04:39:26;;;;;;;4.57;2.20;;;;;;;10.09;74.31;97665.34;6228659;22;20019;-65
2022/10/30 04:41:57;;;;;;;4.35;1.88;;;;;;;10.21;74.38;97667.78;6228894;22;20057;-66
2022/10/30 04:44:29;;;;;;;5.05;2.40;;;;;;;10.21;73.59;97665.13;6228875;22;20022;-65
2022/10/30 04:46:53;;;;;;;3.05;1.83;;;;;;;10.14;73.55;97662.22;6203473;22;20094;-67
2022/10/30 04:49:18;;;;;;;7.60;2.65;;;;;;;10.11;74.14;97657.19;6229197;22;20020;-67
2022/10/30 04:51:45;;;;;;;3.97;2.17;;;;;;;9.99;73.40;97653.09;6229069;22;20061;-66
2022/10/30 04:54:10;;;;;;;4.88;2.75;;;;;;;9.84;74.41;97656.31;6230405;22;20443;-68
2022/10/30 04:56:36;;;;;;;3.53;2.45;;;;;;;9.78;74.00;97662.25;6228653;22;20390;-65
2022/10/30 04:59:01;;;;;;;2.67;1.98;;;;;;;9.65;74.29;97651.16;6227600;22;20026;-66
2022/10/30 05:01:25;;;;;;;3.75;2.28;;;;;;;9.54;74.95;97646.06;6229399;22;20015;-65
2022/10/30 05:03:50;;;;;;;3.10;1.95;;;;;;;9.51;74.81;97641.03;6229509;22;20054;-66
2022/10/30 05:06:26;;;;;;;5.00;2.72;;;;;;;9.57;75.40;97656.41;6203410;22;20061;-65
2022/10/30 05:08:51;;;;;;;6.28;2.30;;;;;;;9.46;75.29;97656.63;6203180;22;20383;-65
2022/10/30 05:11:35;;;;;;;5.90;1.88;;;;;;;9.46;75.43;97657.47;6229936;22;20019;-65
2022/10/30 05:14:00;;;;;;;4.43;2.65;;;;;;;9.36;75.88;97655.88;6228719;22;20026;-66
2022/10/30 05:16:25;;;;;;;5.65;2.45;;;;;;;9.45;75.51;97660.28;6228603;22;20012;-65
2022/10/30 05:18:50;;;;;;;5.22;2.25;;;;;;;9.47;75.64;97660.97;6228674;22;20031;-67
2022/10/30 05:21:15;;;;;;;5.43;2.80;;;;;;;9.52;75.90;97655.19;6230194;22;20011;-65
2022/10/30 05:23:39;;;;;;;3.95;2.30;;;;;;;9.58;75.50;97660.75;6202653;22;20027;-66
2022/10/30 05:26:04;;;;;;;4.47;2.10;;;;;;;9.61;74.77;97655.09;6228381;22;20094;-65
2022/10/30 05:28:29;;;;;;;2.90;2.22;;;;;;;9.78;75.04;97653.44;6228526;22;20015;-65
2022/10/30 05:30:55;;;;;;;5.22;2.92;;;;;;;9.93;74.09;97659.06;6202546;22;20076;-67
2022/10/30 05:33:49;;;;;;;7.20;2.10;;;;;;;10.20;73.15;97664.28;6166791;23;20558;-70
2022/10/30 05:36:14;;;;;;;5.45;2.50;;;;;;;10.34;71.60;97666.38;6167954;23;20020;-68
2022/10/30 05:38:40;;;;;;;7.47;2.72;;;;;;;10.84;70.72;97662.97;6167384;23;20020;-69
2022/10/30 05:41:08;;;;;;;1.90;1.73;;;;;;;11.15;68.82;97673.97;6141823;23;20021;-69
2022/10/30 05:43:33;;;;;;;2.78;1.88;;;;;;;11.17;67.66;97662.13;6166613;23;20020;-68
2022/10/30 05:45:57;;;;;;;5.30;3.20;;;;;;;11.04;68.18;97668.94;6141956;23;20105;-70
2022/10/30 05:48:22;;;;;;;5.57;1.98;;;;;;;10.83;68.90;97674.66;6141135;23;20051;-68
2022/10/30 05:50:47;;;;;;;3.53;1.90;;;;;;;10.66;68.97;97684.38;6116217;23;20100;-68
2022/10/30 05:53:25;;;;;;;6.75;2.60;;;;;;;10.55;69.88;97679.34;6141205;23;20020;-68
2022/10/30 05:55:55;;;;;;;10.18;2.38;;;;;;;10.60;70.14;97681.53;6141097;23;20027;-68
2022/10/30 05:58:21;;;;;;;3.83;2.28;;;;;;;10.52;69.76;97668.97;6117212;23;20352;-70
2022/10/30 06:00:47;;;;;;;3.50;2.10;;;;;;;10.37;69.77;97679.41;6117581;23;20333;-69
2022/10/30 06:03:20;;;;;;;5.75;2.17;;;;;;;10.41;70.10;97686.06;6142314;23;20020;-69
2022/10/30 06:05:45;;;;;;;3.45;1.48;;;;;;;10.46;70.32;97689.09;6117804;23;20016;-67
2022/10/30 06:08:11;;;;;;;5.25;2.13;;;;;;;10.39;70.37;97680.06;6176381;23;20012;-68
2022/10/30 06:10:37;;;;;;;6.03;2.20;;;;;;;10.35;70.75;97692.03;6208383;22;20047;-69
2022/10/30 06:13:10;;;;;;;16.98;2.13;;;;;;;10.18;71.90;97707.03;6229488;22;20095;-69
2022/10/30 06:15:57;;;;;;;5.78;1.98;;;;;;;9.83;73.47;97713.19;6229115;22;20015;-66
2022/10/30 06:18:28;;;;;;;2.35;1.38;;;;;;;9.53;72.13;97721.53;6204219;22;20012;-66
2022/10/30 06:21:02;;;;;;;5.95;1.85;;;;;;;9.43;71.75;97724.25;6207061;22;20015;-66
2022/10/30 06:23:54;;;;;;;4.47;1.73;;;;;;;9.24;71.52;97721.72;6239177;22;20023;-66
2022/10/30 06:26:45;;;;;;;2.72;1.58;;;;;;;9.12;71.34;97727.38;6166693;23;20055;-66
2022/10/30 06:29:12;;;;;;;3.35;1.17;;;;;;;9.05;70.47;97737.72;6167843;23;20026;-66
2022/10/30 06:31:37;;;;;;;4.50;1.00;;;;;;;8.94;68.93;97741.41;6118037;23;20056;-68
2022/10/30 06:34:02;;;;;;;5.53;1.95;;;;;;;9.09;69.08;97737.31;6119594;23;20028;-67
2022/10/30 06:36:28;;;;;;;1.73;0.93;;;;;;;9.08;66.92;97748.09;6117352;23;20023;-66
2022/10/30 06:38:53;;;;;;;2.92;1.40;;;;;;;9.16;65.96;97745.53;6141556;23;20016;-66
2022/10/30 06:41:22;;;;;;;4.25;0.93;;;;;;;9.18;63.50;97759.50;6141461;23;20075;-65
2022/10/30 06:44:18;;;;;;;1.27;0.93;;;;;;;9.36;61.91;97762.25;6141658;23;20016;-67
2022/10/30 06:46:43;;;;;;;1.27;0.75;;;;;;;9.55;61.15;97751.47;6141576;23;20024;-65
2022/10/30 06:49:07;;;;;;;4.38;1.15;;;;;;;9.42;59.47;97757.16;6116221;23;20021;-69
2022/10/30 06:51:32;;;;;;;1.00;0.90;;;;;;;9.54;59.58;97765.75;6116247;23;20082;-67
2022/10/30 06:53:58;;;;;;;2.13;1.20;;;;;;;9.73;59.67;97755.00;6141100;23;20044;-66
2022/10/30 06:56:37;;;;;;;3.88;1.05;;;;;;;9.82;57.67;97747.94;6166307;23;20456;-66
2022/10/30 06:59:34;;;;;;;3.78;1.23;;;;;;;9.95;56.49;97748.41;6059721;23;20018;-66
2022/10/30 07:02:25;;;;;;;3.20;1.15;;;;;;;9.74;56.41;97756.66;6057600;23;20089;-68
2022/10/30 07:04:56;;;;;;;4.60;1.73;;;;;;;9.64;56.97;97760.38;6141375;23;20028;-65
2022/10/30 07:07:22;;;;;;;4.75;2.17;;;;;;;9.68;56.66;97762.59;6140969;23;20016;-67
2022/10/30 07:09:46;;;;;;;3.20;1.10;;;;;;;9.89;56.79;97753.50;6140884;23;20083;-66
2022/10/30 07:12:13;;;;;;;2.92;1.08;;;;;;;10.04;55.59;97763.47;6116329;23;20392;-68
2022/10/30 07:14:47;;;;;;;6.75;1.52;;;;;;;10.27;55.65;97739.88;6165807;23;20074;-68
2022/10/30 07:17:16;;;;;;;3.38;1.15;;;;;;;10.36;55.01;97740.81;6141967;23;20033;-67
2022/10/30 07:19:47;;;;;;;7.13;1.48;;;;;;;10.41;54.47;97731.34;6140796;23;20091;-67
2022/10/30 07:22:12;;;;;;;4.88;1.73;;;;;;;10.40;53.51;97732.34;6140726;23;20020;-66
2022/10/30 07:24:41;;;;;;;7.18;1.65;;;;;;;10.49;53.47;97735.91;6135732;23;20021;-67
2022/10/30 07:27:17;;;;;;;5.18;2.17;;;;;;;10.60;53.12;97738.34;6088145;23;20017;-65
2022/10/30 07:29:48;;;;;;;6.03;2.03;;;;;;;11.28;52.26;97743.72;6136778;23;20048;-66
2022/10/30 07:32:22;;;;;;;7.93;2.25;;;;;;;12.91;48.59;97729.53;6112258;23;20488;-67
2022/10/30 07:34:49;;;;;;;3.25;2.10;;;;;;;14.61;44.27;97722.41;6144955;22;20026;-69
2022/10/30 07:37:40;;;;;;;7.07;2.33;;;;;;;16.03;41.65;97721.25;6117847;23;20013;-66
2022/10/30 07:40:09;;;;;;;2.13;1.08;;;;;;;16.78;38.57;97715.31;6082523;23;20138;-66
2022/10/30 07:42:57;;;;;;;2.83;0.93;;;;;;;17.38;37.72;97695.81;6105041;23;20044;-65
2022/10/30 07:45:44;;;;;;;2.47;1.30;;;;;;;18.11;35.61;97705.84;6085265;23;20040;-65
2022/10/30 07:48:32;;;;;;;1.88;1.20;;;;;;;18.51;34.84;97695.06;6078031;23;20021;-66
2022/10/30 07:51:04;;;;;;;4.38;2.03;;;;;;;18.09;34.69;97709.75;6052708;23;20018;-67
2022/10/30 07:53:29;;;;;;;7.68;2.13;;;;;;;17.52;34.72;97702.91;6052746;23;20144;-67
2022/10/30 07:55:55;;;;;;;2.95;1.80;;;;;;;17.33;35.43;97700.97;6054231;23;20021;-67
2022/10/30 07:58:43;;;;;;;2.60;1.52;;;;;;;17.77;35.49;97692.47;5992806;23;20482;-67
2022/10/30 08:01:30;;;;;;;5.07;2.58;;;;;;;18.31;35.08;97699.63;5975048;23;20022;-66
2022/10/30 08:04:04;;;;;;;1.53;1.43;;;;;;;17.96;34.75;97704.34;5997430;23;20169;-65
2022/10/30 08:06:30;;;;;;;2.83;1.67;;;;;;;17.01;36.13;97705.97;6021763;23;20046;-68
2022/10/30 08:08:55;;;;;;;2.63;1.80;;;;;;;16.11;37.54;97710.38;6021052;23;20086;-69
2022/10/30 08:11:25;;;;;;;5.53;1.88;;;;;;;15.17;40.01;97714.78;5997305;23;20045;-68
2022/10/30 08:13:51;;;;;;;2.47;1.30;;;;;;;14.17;41.38;97695.44;6035181;23;20043;-69
2022/10/30 08:16:17;;;;;;;3.33;1.20;;;;;;;13.38;43.21;97712.66;6054737;23;20198;-67
2022/10/30 08:18:41;;;;;;;2.90;1.10;;;;;;;12.58;44.19;97728.75;6054731;23;20458;-71
2022/10/30 08:21:06;;;;;;;1.30;0.75;;;;;;;12.28;46.08;97710.72;6079572;23;20524;-69
2022/10/30 08:23:31;;;;;;;1.60;1.10;;;;;;;11.88;47.37;97712.38;6078918;23;20017;-68
2022/10/30 08:26:00;;;;;;;1.77;1.33;;;;;;;11.82;47.85;97715.72;6140485;23;20023;-68
2022/10/30 08:28:26;;;;;;;6.43;1.55;;;;;;;11.45;48.04;97712.56;6142524;23;20047;-68
2022/10/30 08:30:53;;;;;;;2.13;1.23;;;;;;;11.14;49.55;97718.47;6142642;23;20024;-70
2022/10/30 08:33:31;;;;;;;6.32;1.45;;;;;;;11.14;49.74;97718.47;6117704;23;20613;-69
2022/10/30 08:36:16;;;;;;;3.08;1.52;;;;;;;11.29;49.77;97714.19;6197553;22;20019;-69
2022/10/30 08:38:41;;;;;;;2.05;1.17;;;;;;;11.39;50.43;97706.06;6229336;22;20042;-68
2022/10/30 08:41:25;;;;;;;3.17;1.60;;;;;;;11.52;49.75;97698.41;6229229;22;20026;-69
2022/10/30 08:43:51;;;;;;;3.10;1.42;;;;;;;11.49;50.06;97703.25;6229331;22;20017;-69
2022/10/30 08:46:16;;;;;;;1.90;1.35;;;;;;;11.34;50.23;97694.19;6229137;22;20362;-68
2022/10/30 08:48:41;;;;;;;2.30;1.60;;;;;;;11.43;49.69;97698.56;6203959;22;20351;-68
2022/10/30 08:51:06;;;;;;;3.22;1.65;;;;;;;11.43;49.68;97698.56;6230997;22;20024;-69
2022/10/30 08:53:35;;;;;;;2.35;1.20;;;;;;;11.37;50.05;97693.88;6231556;22;20462;-68
2022/10/30 08:56:04;;;;;;;2.72;1.13;;;;;;;11.40;49.79;97688.22;6230963;22;20019;-66
2022/10/30 08:58:43;;;;;;;5.70;2.17;;;;;;;11.31;49.81;97689.16;6207635;22;20012;-73
2022/10/30 09:01:08;;;;;;;1.38;1.00;;;;;;;11.38;50.17;97691.06;6233092;22;20019;-77
2022/10/30 09:04:07;;;;;;;5.40;3.17;;;;;;;11.56;49.26;97682.91;6146397;23;20017;-71
2022/10/30 09:06:55;;;;;;;2.67;1.23;;;;;;;11.59;48.89;97679.94;6050464;23;20025;-69
2022/10/30 09:09:37;;;;;;;1.63;1.17;;;;;;;11.47;48.03;97681.22;6049796;23;20045;-70
2022/10/30 09:12:03;;;;;;;2.10;0.90;;;;;;;11.25;49.09;97675.50;6053956;23;20030;-69
2022/10/30 09:14:34;;;;;;;2.53;1.27;;;;;;;11.03;49.92;97670.75;6050311;23;20018;-69
2022/10/30 09:16:59;;;;;;;4.13;1.30;;;;;;;10.89;50.74;97663.34;6049611;23;20030;-68
2022/10/30 09:19:27;;;;;;;5.55;2.40;;;;;;;10.67;50.36;97664.75;6050706;23;20339;-67
2022/10/30 09:21:52;;;;;;;1.63;1.10;;;;;;;10.42;50.95;97665.59;6049994;23;20471;-68
2022/10/30 09:24:17;;;;;;;1.98;1.10;;;;;;;10.32;51.57;97663.03;6051599;23;20514;-69
2022/10/30 09:26:48;;;;;;;1.95;1.25;;;;;;;10.22;51.78;97648.16;6051265;23;20022;-68
2022/10/30 09:29:23;;;;;;;2.85;1.38;;;;;;;10.19;52.59;97658.13;6003090;23;20022;-69
2022/10/30 09:31:59;;;;;;;1.73;1.52;;;;;;;10.13;52.78;97657.88;6051445;23;20097;-71
2022/10/30 09:34:28;;;;;;;8.32;2.50;;;;;;;10.14;52.87;97651.56;6048903;23;20104;-67
2022/10/30 09:36:59;;;;;;;2.58;2.08;;;;;;;10.17;53.05;97640.59;6026015;23;20378;-68
2022/10/30 09:39:25;;;;;;;2.65;1.88;;;;;;;10.19;52.95;97647.47;6066395;23;20022;-67
2022/10/30 09:42:05;;;;;;;3.15;1.80;;;;;;;10.23;52.75;97655.97;6084803;23;20029;-68
2022/10/30 09:44:48;;;;;;;3.13;1.58;;;;;;;10.26;53.57;97647.69;6178769;22;20015;-67
2022/10/30 09:47:56;;;;;;;6.55;2.03;;;;;;;10.20;53.38;97637.66;6229628;22;20018;-68
2022/10/30 09:50:27;;;;;;;2.22;1.25;;;;;;;9.95;54.60;97638.41;6114537;23;20020;-68
2022/10/30 09:53:19;;;;;;;1.48;1.00;;;;;;;10.00;54.40;97633.47;6114778;23;20152;-68
2022/10/30 09:56:02;;;;;;;3.03;1.15;;;;;;;9.99;54.46;97634.47;6090588;23;20020;-65
2022/10/30 09:59:03;;;;;;;3.50;0.90;;;;;;;10.08;54.96;97654.84;6114192;23;20401;-66
2022/10/30 10:01:48;;;;;;;5.13;1.50;;;;;;;10.06;54.81;97649.66;6133359;23;20020;-65
2022/10/30 10:04:30;;;;;;;3.45;1.40;;;;;;;9.86;55.59;97626.88;6112990;23;20048;-66
2022/10/30 10:07:08;;;;;;;5.88;2.03;;;;;;;9.75;52.28;97632.44;6138954;23;20021;-66
2022/10/30 10:10:24;;;;;;;3.88;1.90;;;;;;;10.17;52.75;97635.25;6080840;23;20180;-69
2022/10/30 10:12:54;;;;;;;5.28;1.85;;;;;;;10.16;49.64;97633.59;6079380;23;20028;-70
2022/10/30 10:15:26;;;;;;;6.65;1.45;;;;;;;10.33;48.21;97629.25;6080166;23;20053;-70
2022/10/30 10:17:54;;;;;;;4.20;1.43;;;;;;;10.55;48.23;97640.19;6080046;23;20156;-68
2022/10/30 10:20:31;;;;;;;3.45;1.33;;;;;;;10.75;46.80;97642.63;6078973;23;20033;-67
2022/10/30 10:23:01;;;;;;;2.92;1.67;;;;;;;10.91;46.68;97629.38;6080949;23;20362;-68
2022/10/30 10:25:29;;;;;;;4.38;1.25;;;;;;;10.90;45.38;97644.53;6079300;23;20081;-68
2022/10/30 10:28:15;;;;;;;3.92;1.73;;;;;;;10.91;45.27;97656.88;6125409;23;20017;-68
2022/10/30 10:31:06;;;;;;;1.73;1.02;;;;;;;11.06;44.28;97638.41;6136208;23;20143;-69
2022/10/30 10:33:52;;;;;;;2.25;1.00;;;;;;;11.28;45.42;97651.19;6136350;23;20060;-71
2022/10/30 10:36:35;;;;;;;3.95;1.60;;;;;;;11.47;45.15;97631.38;6111371;23;20049;-69
2022/10/30 10:39:26;;;;;;;4.55;1.25;;;;;;;11.16;44.10;97633.81;6111652;23;20017;-68
2022/10/30 10:42:01;;;;;;;3.65;1.17;;;;;;;10.98;43.85;97641.06;6136831;23;20032;-70
2022/10/30 10:44:34;;;;;;;4.22;1.55;;;;;;;10.76;44.16;97641.63;6197592;22;20043;-69
2022/10/30 10:47:16;;;;;;;4.50;1.45;;;;;;;10.43;43.72;97633.47;6239025;22;20161;-68
2022/10/30 10:50:09;;;;;;;2.95;0.70;;;;;;;9.99;45.22;97626.47;6239907;22;20559;-69
2022/10/30 10:52:34;;;;;;;1.65;0.73;;;;;;;9.41;46.83;97611.88;6227522;22;20019;-69
2022/10/30 10:55:04;;;;;;;1.02;1.00;;;;;;;9.26;46.41;97618.69;6228982;22;20015;-68
2022/10/30 10:57:35;;;;;;;0.93;0.90;;;;;;;9.07;47.70;97648.91;6229012;22;20020;-67
2022/10/30 11:00:22;;;;;;;1.50;1.00;;;;;;;9.08;50.20;97668.34;6227371;22;20016;-68
2022/10/30 11:03:13;;;;;;;6.50;1.52;;;;;;;8.66;56.35;97679.44;6227160;22;20016;-67
2022/10/30 11:05:48;;;;;;;6.68;1.20;;;;;;;8.27;58.69;97662.75;6229120;22;20007;-66
2022/10/30 11:08:25;;;;;;;3.15;1.83;;;;;;;7.76;62.25;97673.72;6228781;22;20019;-66
2022/10/30 11:10:57;;;;;;;2.55;1.50;;;;;;;7.65;63.12;97672.06;6227775;22;20065;-65
2022/10/30 11:13:25;;;;;;;2.50;0.90;;;;;;;7.58;63.64;97689.47;6227576;22;20074;-65
2022/10/30 11:16:03;;;;;;;5.40;1.17;;;;;;;7.81;63.29;97682.09;6228429;22;20016;-66
2022/10/30 11:18:27;;;;;;;2.42;1.40;;;;;;;7.67;63.06;97689.66;6228749;22;20019;-69
2022/10/30 11:21:08;;;;;;;6.60;2.08;;;;;;;7.72;62.95;97692.69;6228861;22;20018;-65
2022/10/30 11:23:39;;;;;;;2.25;1.25;;;;;;;7.19;64.37;97701.84;6228175;22;20069;-65
2022/10/30 11:26:25;;;;;;;3.75;1.35;;;;;;;7.14;64.84;97682.03;6227164;22;20490;-65
2022/10/30 11:29:17;;;;;;;4.22;1.10;;;;;;;7.05;65.97;97698.75;6227137;22;20016;-65
2022/10/30 11:31:43;;;;;;;2.92;1.65;;;;;;;6.79;66.05;97704.50;6230754;22;20022;-65
2022/10/30 11:34:13;;;;;;;1.70;0.75;;;;;;;7.00;64.92;97706.28;6231188;22;20886;-64
2022/10/30 11:36:38;;;;;;;3.55;1.70;;;;;;;7.08;64.91;97701.13;6230673;22;20027;-65
2022/10/30 11:39:09;;;;;;;4.97;1.42;;;;;;;7.27;63.81;97701.16;6231337;22;20023;-68
2022/10/30 11:41:34;;;;;;;5.88;1.70;;;;;;;7.25;62.35;97708.41;6231767;22;20027;-67
2022/10/30 11:43:58;;;;;;;2.22;1.38;;;;;;;7.11;62.96;97719.41;6230952;22;20023;-67
2022/10/30 11:46:23;;;;;;;1.75;1.30;;;;;;;6.99;63.02;97717.84;6231004;22;20156;-66
2022/10/30 11:48:53;;;;;;;1.83;1.00;;;;;;;6.78;62.28;97710.75;6231245;22;20015;-67
2022/10/30 11:51:30;;;;;;;1.27;1.10;;;;;;;6.76;62.72;97709.25;6229126;22;20050;-65
2022/10/30 11:53:55;;;;;;;1.25;0.85;;;;;;;6.56;62.66;97697.69;6204499;22;20035;-65
2022/10/30 11:56:22;;;;;;;2.33;1.25;;;;;;;6.49;62.14;97697.41;6229715;22;20016;-65